createdAt,value
2023-03-06T00:01:01.152Z,100245.13
2023-03-06T00:03:28.492Z,100244.72
2023-03-06T00:05:57.868Z,100241.81
2023-03-06T00:08:26.149Z,100235.00
2023-03-06T00:10:53.508Z,100239.75
2023-03-06T00:13:23.108Z,100231.69
2023-03-06T00:15:50.236Z,100235.06
2023-03-06T00:18:17.336Z,100233.84
2023-03-06T00:20:45.153Z,100226.81
2023-03-06T00:23:12.701Z,100228.75
2023-03-06T00:25:43.370Z,100233.28
2023-03-06T00:28:12.265Z,100235.56
2023-03-06T00:30:39.580Z,100232.81
2023-03-06T00:33:06.841Z,100222.19
2023-03-06T00:35:33.858Z,100228.78
2023-03-06T00:38:01.279Z,100226.03
2023-03-06T00:40:28.249Z,100227.16
2023-03-06T00:42:55.274Z,100225.75
2023-03-06T00:45:22.359Z,100225.31
2023-03-06T00:47:49.434Z,100232.22
2023-03-06T00:50:16.710Z,100228.75
2023-03-06T00:52:43.890Z,100218.88
2023-03-06T00:55:11.256Z,100221.28
2023-03-06T00:57:38.353Z,100220.22
2023-03-06T01:00:06.197Z,100214.91
2023-03-06T01:02:33.276Z,100211.69
2023-03-06T01:05:00.599Z,100215.25
2023-03-06T01:07:28.536Z,100213.31
2023-03-06T01:09:55.566Z,100209.28
2023-03-06T01:12:23.609Z,100204.28
2023-03-06T01:14:50.757Z,100204.84
2023-03-06T01:17:17.799Z,100206.38
2023-03-06T01:19:44.998Z,100201.59
2023-03-06T01:22:12.211Z,100189.84
2023-03-06T01:24:39.237Z,100190.34
2023-03-06T01:27:06.584Z,100194.34
2023-03-06T01:29:33.583Z,100187.19
2023-03-06T01:32:00.659Z,100191.34
2023-03-06T01:34:27.917Z,100183.06
2023-03-06T01:36:54.996Z,100191.50
2023-03-06T01:39:22.366Z,100193.34
2023-03-06T01:41:49.380Z,100178.41
2023-03-06T01:44:16.761Z,100174.94
2023-03-06T01:46:45.369Z,100172.88
2023-03-06T01:49:20.003Z,100152.47
2023-03-06T01:52:01.724Z,100156.28
2023-03-06T01:54:38.927Z,100149.63
2023-03-06T01:57:12.376Z,100160.88
2023-03-06T01:59:42.292Z,100158.72
2023-03-06T02:02:11.857Z,100159.75
2023-03-06T02:04:41.100Z,100150.25
2023-03-06T02:07:09.226Z,100148.09
2023-03-06T02:09:37.572Z,100140.94
2023-03-06T02:12:13.610Z,100141.75
2023-03-06T02:14:42.289Z,100136.66
2023-03-06T02:17:11.934Z,100132.16
2023-03-06T02:19:41.695Z,100138.59
2023-03-06T02:22:08.871Z,100132.25
2023-03-06T02:25:20.319Z,100136.44
2023-03-06T02:27:48.248Z,100129.44
2023-03-06T02:30:17.257Z,100131.59
2023-03-06T02:32:44.272Z,100129.75
2023-03-06T02:35:27.227Z,100133.69
2023-03-06T02:37:57.150Z,100125.72
2023-03-06T02:40:24.868Z,100128.72
2023-03-06T02:42:57.551Z,100122.03
2023-03-06T02:45:34.577Z,100123.66
2023-03-06T02:48:02.433Z,100115.75
2023-03-06T02:50:30.073Z,100117.91
2023-03-06T02:52:57.413Z,100115.75
2023-03-06T02:55:25.068Z,100123.19
2023-03-06T02:57:52.142Z,100123.28
2023-03-06T03:00:20.048Z,100124.28
2023-03-06T03:02:47.139Z,100129.69
2023-03-06T03:05:14.275Z,100119.56
2023-03-06T03:07:42.144Z,100134.13
2023-03-06T03:10:09.993Z,100132.53
2023-03-06T03:12:37.067Z,100139.13
2023-03-06T03:15:05.331Z,100131.41
2023-03-06T03:17:36.972Z,100126.09
2023-03-06T03:20:06.090Z,100130.91
2023-03-06T03:22:33.617Z,100124.56
2023-03-06T03:25:00.663Z,100123.94
2023-03-06T03:27:27.820Z,100123.19
2023-03-06T03:29:57.489Z,100120.63
2023-03-06T03:32:25.391Z,100122.53
2023-03-06T03:34:52.712Z,100116.72
2023-03-06T03:37:19.792Z,100114.56
2023-03-06T03:39:46.889Z,100110.56
2023-03-06T03:42:13.991Z,100100.75
2023-03-06T03:44:41.071Z,100097.53
2023-03-06T03:47:08.181Z,100089.03
2023-03-06T03:49:35.649Z,100092.28
2023-03-06T03:52:02.824Z,100081.66
2023-03-06T03:54:29.865Z,100074.28
2023-03-06T03:56:57.392Z,100065.75
2023-03-06T03:59:24.653Z,100074.81
2023-03-06T04:01:52.428Z,100069.84
2023-03-06T04:04:19.474Z,100065.38
2023-03-06T04:06:46.522Z,100068.97
2023-03-06T04:09:14.165Z,100066.38
2023-03-06T04:11:41.296Z,100065.81
2023-03-06T04:14:09.797Z,100059.63
2023-03-06T04:16:37.097Z,100064.47
2023-03-06T04:19:04.188Z,100066.06
2023-03-06T04:21:31.253Z,100058.31
2023-03-06T04:23:58.594Z,100064.13
2023-03-06T04:26:25.899Z,100049.53
2023-03-06T04:28:52.906Z,100052.47
2023-03-06T04:31:20.042Z,100044.41
2023-03-06T04:33:47.657Z,100055.66
2023-03-06T04:36:24.690Z,100059.34
2023-03-06T04:38:51.887Z,100049.47
2023-03-06T04:41:22.049Z,100053.16
2023-03-06T04:43:49.294Z,100055.00
2023-03-06T04:46:16.663Z,100047.06
2023-03-06T04:48:43.937Z,100043.81
2023-03-06T04:51:13.573Z,100044.41
2023-03-06T04:53:40.847Z,100041.19
2023-03-06T04:56:08.169Z,100046.50
2023-03-06T04:58:35.306Z,100046.44
2023-03-06T05:01:03.078Z,100046.56
2023-03-06T05:03:30.612Z,100046.94
2023-03-06T05:05:57.679Z,100040.78
2023-03-06T05:08:25.175Z,100044.03
2023-03-06T05:10:57.570Z,100046.50
2023-03-06T05:13:25.883Z,100038.81
2023-03-06T05:15:53.807Z,100042.66
2023-03-06T05:18:21.353Z,100036.31
2023-03-06T05:20:48.370Z,100037.09
2023-03-06T05:23:15.385Z,100035.22
2023-03-06T05:25:42.526Z,100029.34
2023-03-06T05:28:09.604Z,100037.84
2023-03-06T05:30:36.832Z,100033.66
2023-03-06T05:33:03.924Z,100037.72
2023-03-06T05:35:31.071Z,100027.88
2023-03-06T05:37:58.164Z,100029.91
2023-03-06T05:40:25.892Z,100035.53
2023-03-06T05:42:53.141Z,100009.06
2023-03-06T05:45:20.639Z,100028.84
2023-03-06T05:47:47.800Z,100029.44
2023-03-06T05:50:14.986Z,100024.69
2023-03-06T05:52:42.918Z,100023.78
2023-03-06T05:55:12.312Z,100026.47
2023-03-06T05:57:39.475Z,100021.16
2023-03-06T06:00:07.550Z,100025.69
2023-03-06T06:02:34.732Z,100024.56
2023-03-06T06:05:03.639Z,100019.75
2023-03-06T06:07:30.734Z,100019.19
2023-03-06T06:09:57.761Z,100016.53
2023-03-06T06:12:25.014Z,100016.84
2023-03-06T06:14:52.116Z,100006.97
2023-03-06T06:17:19.702Z,100007.69
2023-03-06T06:19:47.058Z,100019.03
2023-03-06T06:22:14.090Z,100020.31
2023-03-06T06:24:41.422Z,100018.50
2023-03-06T06:27:08.871Z,100022.41
2023-03-06T06:29:36.048Z,100034.16
2023-03-06T06:32:03.734Z,100018.38
2023-03-06T06:34:31.851Z,100028.72
2023-03-06T06:36:59.279Z,100028.66
2023-03-06T06:39:27.090Z,100030.59
2023-03-06T06:42:25.898Z,100032.06
2023-03-06T06:44:41.218Z,100032.13
2023-03-06T06:47:22.233Z,100034.53
2023-03-06T06:49:55.307Z,100031.56
2023-03-06T06:52:24.680Z,100033.91
2023-03-06T06:54:52.983Z,100029.13
2023-03-06T06:57:20.054Z,100032.81
2023-03-06T06:59:47.212Z,100023.81
2023-03-06T07:02:15.919Z,100021.88
2023-03-06T07:05:00.320Z,100027.56
2023-03-06T07:07:33.163Z,100028.59
2023-03-06T07:10:00.320Z,100031.81
2023-03-06T07:12:27.348Z,100034.47
2023-03-06T07:14:54.370Z,100029.13
2023-03-06T07:17:21.458Z,100023.03
2023-03-06T07:19:48.640Z,100024.88
2023-03-06T07:22:15.675Z,100029.72
2023-03-06T07:24:42.772Z,100017.81
2023-03-06T07:27:09.893Z,100018.59
2023-03-06T07:29:36.959Z,100016.00
2023-03-06T07:32:04.189Z,100023.72
2023-03-06T07:34:31.340Z,100024.03
2023-03-06T07:36:58.376Z,100018.13
2023-03-06T07:39:25.599Z,100021.31
2023-03-06T07:41:53.480Z,100025.63
2023-03-06T07:44:20.620Z,100024.16
2023-03-06T07:46:47.733Z,100026.97
2023-03-06T07:49:14.827Z,100019.13
2023-03-06T07:51:41.945Z,100016.41
2023-03-06T07:54:09.048Z,100022.72
2023-03-06T07:56:36.536Z,100014.72
2023-03-06T07:59:03.705Z,100018.41
2023-03-06T08:01:30.691Z,100002.88
2023-03-06T08:03:57.907Z,100011.41
2023-03-06T08:06:26.678Z,100020.75
2023-03-06T08:08:54.821Z,100025.03
2023-03-06T08:11:24.622Z,100026.38
2023-03-06T08:13:53.023Z,100026.22
2023-03-06T08:16:21.331Z,100029.16
2023-03-06T08:18:48.535Z,100038.56
2023-03-06T08:21:18.656Z,100024.00
2023-03-06T08:23:46.938Z,100026.97
2023-03-06T08:26:20.803Z,100035.50
2023-03-06T08:28:48.233Z,100026.13
2023-03-06T08:31:45.474Z,100046.69
2023-03-06T08:34:15.934Z,100046.00
2023-03-06T08:36:43.350Z,100047.63
2023-03-06T08:39:11.252Z,100054.44
2023-03-06T08:41:38.786Z,100052.25
2023-03-06T08:44:06.389Z,100068.19
2023-03-06T08:46:34.610Z,100078.00
2023-03-06T08:49:01.792Z,100065.66
2023-03-06T08:51:29.260Z,100078.69
2023-03-06T08:53:57.406Z,100078.34
2023-03-06T08:56:30.678Z,100079.50
2023-03-06T08:59:00.524Z,100083.00
2023-03-06T09:01:33.303Z,100097.09
2023-03-06T09:04:03.539Z,100090.75
2023-03-06T09:06:34.596Z,100095.56
2023-03-06T09:09:02.263Z,100100.81
2023-03-06T09:11:30.264Z,100112.94
2023-03-06T09:13:57.499Z,100114.47
2023-03-06T09:16:25.488Z,100124.25
2023-03-06T09:18:54.106Z,100125.84
2023-03-06T09:21:22.121Z,100126.66
2023-03-06T09:23:49.366Z,100126.91
2023-03-06T09:26:16.853Z,100129.63
2023-03-06T09:28:43.937Z,100124.03
2023-03-06T09:31:13.692Z,100117.53
2023-03-06T09:33:40.834Z,100128.47
2023-03-06T09:36:10.494Z,100132.19
2023-03-06T09:38:39.334Z,100129.38
2023-03-06T09:41:34.829Z,100122.38
2023-03-06T09:44:05.005Z,100146.91
2023-03-06T09:46:59.894Z,100143.06
2023-03-06T09:49:38.853Z,100151.34
2023-03-06T09:52:31.086Z,100148.88
2023-03-06T09:55:09.259Z,100143.94
2023-03-06T09:57:41.354Z,100140.84
2023-03-06T10:00:15.538Z,100135.09
2023-03-06T10:02:51.267Z,100141.56
2023-03-06T10:05:35.965Z,100142.06
2023-03-06T10:08:19.468Z,100139.53
2023-03-06T10:11:02.105Z,100145.19
2023-03-06T10:13:45.530Z,100152.41
2023-03-06T10:16:29.017Z,100153.97
2023-03-06T10:19:03.757Z,100147.88
2023-03-06T10:21:33.662Z,100155.88
2023-03-06T10:24:18.596Z,100158.06
2023-03-06T10:27:17.795Z,100149.88
2023-03-06T10:30:02.806Z,100161.63
2023-03-06T10:32:49.789Z,100157.59
2023-03-06T10:35:25.648Z,100155.63
2023-03-06T10:38:01.189Z,100154.19
2023-03-06T10:40:40.802Z,100164.03
2023-03-06T10:43:12.244Z,100165.84
2023-03-06T10:45:50.152Z,100154.22
2023-03-06T10:48:25.757Z,100166.28
2023-03-06T10:50:55.012Z,100166.81
2023-03-06T10:53:31.039Z,100174.81
2023-03-06T10:55:59.961Z,100178.81
2023-03-06T10:58:30.007Z,100178.28
2023-03-06T11:01:20.838Z,100175.34
2023-03-06T11:03:48.464Z,100179.38
2023-03-06T11:06:31.882Z,100186.28
2023-03-06T11:09:28.098Z,100178.56
2023-03-06T11:12:27.159Z,100189.47
2023-03-06T11:15:21.250Z,100185.25
2023-03-06T11:17:56.067Z,100175.38
2023-03-06T11:20:29.195Z,100189.47
2023-03-06T11:23:12.282Z,100190.84
2023-03-06T11:25:43.953Z,100193.75
2023-03-06T11:28:31.509Z,100186.56
2023-03-06T11:31:08.876Z,100197.75
2023-03-06T11:34:01.856Z,100193.75
2023-03-06T11:36:54.872Z,100201.75
2023-03-06T11:39:28.223Z,100180.69
2023-03-06T11:42:17.046Z,100191.63
2023-03-06T11:45:15.078Z,100191.63
2023-03-06T11:47:49.096Z,100184.66
2023-03-06T11:50:21.527Z,100185.50
2023-03-06T11:52:52.903Z,100186.88
2023-03-06T11:55:45.907Z,100195.25
2023-03-06T11:58:37.363Z,100195.56
2023-03-06T12:01:27.178Z,100195.03
2023-03-06T12:04:07.310Z,100201.56
2023-03-06T12:06:43.924Z,100199.19
2023-03-06T12:09:14.761Z,100200.81
2023-03-06T12:12:00.143Z,100195.34
2023-03-06T12:14:44.658Z,100205.44
2023-03-06T12:17:15.834Z,100195.34
2023-03-06T12:19:52.682Z,100202.38
2023-03-06T12:22:19.716Z,100201.41
2023-03-06T12:24:57.558Z,100206.00
2023-03-06T12:27:43.409Z,100203.97
2023-03-06T12:30:23.671Z,100207.19
2023-03-06T12:33:14.704Z,100203.50
2023-03-06T12:35:59.926Z,100204.84
2023-03-06T12:38:35.706Z,100203.84
2023-03-06T12:41:21.065Z,100207.09
2023-03-06T12:44:17.102Z,100202.81
2023-03-06T12:46:49.562Z,100195.72
2023-03-06T12:49:38.696Z,100196.19
2023-03-06T12:52:29.607Z,100203.50
2023-03-06T12:54:59.855Z,100199.91
2023-03-06T12:57:27.458Z,100195.00
2023-03-06T12:59:55.777Z,100194.22
2023-03-06T13:02:41.139Z,100185.00
2023-03-06T13:05:17.406Z,100195.25
2023-03-06T13:08:21.866Z,100190.19
2023-03-06T13:11:16.517Z,100156.16
2023-03-06T13:13:45.967Z,100187.09
2023-03-06T13:16:15.990Z,73387.22
2023-03-06T13:18:42.966Z,73387.22
2023-03-06T13:21:45.230Z,73387.22
2023-03-06T13:24:27.602Z,73387.22
2023-03-06T13:26:58.349Z,73387.22
2023-03-06T13:29:37.545Z,73387.22
2023-03-06T13:32:04.596Z,73387.22
2023-03-06T13:34:31.659Z,73387.22
2023-03-06T13:37:13.884Z,73387.22
2023-03-06T13:39:55.956Z,73387.22
2023-03-06T13:42:30.780Z,73387.22
2023-03-06T13:45:07.494Z,73387.22
2023-03-06T13:48:10.933Z,73387.22
2023-03-06T13:50:48.213Z,73387.22
2023-03-06T13:53:51.502Z,73387.22
2023-03-06T13:56:36.764Z,73387.22
2023-03-06T13:59:22.783Z,73387.22
2023-03-06T14:01:59.645Z,73387.22
2023-03-06T14:04:41.158Z,73387.22
2023-03-06T14:07:08.183Z,73387.22
2023-03-06T14:09:46.978Z,73387.22
2023-03-06T14:12:18.958Z,73387.22
2023-03-06T14:14:53.553Z,73387.22
2023-03-06T14:17:28.748Z,73387.22
2023-03-06T14:20:00.169Z,73387.22
2023-03-06T14:22:27.236Z,73387.22
2023-03-06T14:25:13.853Z,73387.22
2023-03-06T14:27:48.690Z,73387.22
2023-03-06T14:30:20.926Z,73387.22
2023-03-06T14:32:50.009Z,73387.22
2023-03-06T14:35:20.264Z,73387.22
2023-03-06T14:37:52.517Z,73387.22
2023-03-06T14:40:26.143Z,100176.84
2023-03-06T14:43:19.588Z,100109.75
2023-03-06T14:45:53.891Z,100098.44
2023-03-06T14:48:21.776Z,100086.50
2023-03-06T14:50:57.038Z,100095.34
2023-03-06T14:53:28.014Z,73387.22
2023-03-06T14:55:58.113Z,73387.22
2023-03-06T14:58:36.608Z,73387.22
2023-03-06T15:01:09.811Z,73387.22
2023-03-06T15:03:47.816Z,73387.22
2023-03-06T15:06:27.753Z,73387.22
2023-03-06T15:09:16.725Z,73387.22
2023-03-06T15:12:01.665Z,73387.22
2023-03-06T15:14:39.691Z,73387.22
2023-03-06T15:17:19.303Z,73387.22
2023-03-06T15:19:48.601Z,73387.22
2023-03-06T15:22:38.690Z,73387.22
2023-03-06T15:25:24.306Z,73387.22
2023-03-06T15:27:52.453Z,73387.22
2023-03-06T15:30:36.623Z,73387.22
2023-03-06T15:33:26.230Z,73387.22
2023-03-06T15:36:18.238Z,73387.22
2023-03-06T15:38:45.972Z,73387.22
2023-03-06T15:41:42.090Z,100078.72
2023-03-06T15:44:12.645Z,100078.41
2023-03-06T15:46:40.011Z,100089.03
2023-03-06T15:49:14.559Z,100091.34
2023-03-06T15:51:41.648Z,100090.69
2023-03-06T15:54:12.184Z,100099.75
2023-03-06T15:56:43.282Z,100096.63
2023-03-06T15:59:26.042Z,100096.53
2023-03-06T16:01:53.946Z,100101.72
2023-03-06T16:04:21.536Z,100096.47
2023-03-06T16:06:49.101Z,100094.09
2023-03-06T16:09:16.323Z,100092.13
2023-03-06T16:11:44.927Z,100099.59
2023-03-06T16:14:21.441Z,100093.44
2023-03-06T16:16:49.498Z,100098.59
2023-03-06T16:19:27.812Z,100085.75
2023-03-06T16:21:56.595Z,100090.03
2023-03-06T16:24:25.083Z,100087.94
2023-03-06T16:26:53.618Z,100087.69
2023-03-06T16:29:23.275Z,100086.13
2023-03-06T16:31:50.445Z,100078.44
2023-03-06T16:34:19.747Z,100095.78
2023-03-06T16:36:48.442Z,100083.53
2023-03-06T16:39:20.800Z,100076.41
2023-03-06T16:41:49.434Z,100077.78
2023-03-06T16:44:16.591Z,73387.22
2023-03-06T16:46:46.081Z,73387.22
2023-03-06T16:49:18.302Z,73387.22
2023-03-06T16:51:45.484Z,73387.22
2023-03-06T16:54:13.343Z,73387.22
2023-03-06T16:56:40.552Z,73387.22
2023-03-06T16:59:07.970Z,73387.22
2023-03-06T17:01:35.185Z,73387.22
2023-03-06T17:04:02.742Z,73387.22
2023-03-06T17:06:30.311Z,73387.22
2023-03-06T17:09:00.195Z,73387.22
2023-03-06T17:11:27.942Z,73387.22
2023-03-06T17:13:55.412Z,73387.22
2023-03-06T17:16:22.945Z,73387.22
2023-03-06T17:18:50.089Z,73387.22
2023-03-06T17:21:17.256Z,73387.22
2023-03-06T17:23:44.896Z,73387.22
2023-03-06T17:26:19.089Z,73387.22
2023-03-06T17:28:47.063Z,73387.22
2023-03-06T17:31:25.468Z,73387.22
2023-03-06T17:33:57.101Z,73387.22
2023-03-06T17:36:24.162Z,73387.22
2023-03-06T17:38:55.080Z,73387.22
2023-03-06T17:41:24.881Z,73387.22
2023-03-06T17:43:52.959Z,73387.22
2023-03-06T17:46:20.281Z,73387.22
2023-03-06T17:48:47.497Z,73387.22
2023-03-06T17:51:14.659Z,73387.22
2023-03-06T17:53:41.808Z,73387.22
2023-03-06T17:56:12.568Z,73387.22
2023-03-06T17:58:39.600Z,73387.22
2023-03-06T18:01:15.250Z,73387.22
2023-03-06T18:03:47.714Z,73387.22
2023-03-06T18:06:16.176Z,73387.22
2023-03-06T18:08:43.859Z,73387.22
2023-03-06T18:11:11.045Z,73387.22
2023-03-06T18:13:41.226Z,73387.22
2023-03-06T18:16:09.610Z,73387.22
2023-03-06T18:18:36.807Z,73387.22
2023-03-06T18:21:09.176Z,73387.22
2023-03-06T18:23:37.526Z,73387.22
2023-03-06T18:26:14.771Z,73387.22
2023-03-06T18:28:44.677Z,73387.22
2023-03-06T18:31:15.921Z,73387.22
2023-03-06T18:33:43.044Z,73387.22
2023-03-06T18:36:10.245Z,73387.22
2023-03-06T18:38:39.632Z,73387.22
2023-03-06T18:41:08.448Z,73387.22
2023-03-06T18:43:36.569Z,73387.22
2023-03-06T18:46:05.212Z,73387.22
2023-03-06T18:48:32.451Z,73387.22
2023-03-06T18:51:07.908Z,73387.22
2023-03-06T18:53:35.734Z,73387.22
2023-03-06T18:56:03.333Z,73387.22
2023-03-06T18:58:30.430Z,73387.22
2023-03-06T19:00:59.336Z,73387.22
2023-03-06T19:03:27.063Z,73387.22
2023-03-06T19:05:54.542Z,73387.22
2023-03-06T19:08:21.556Z,73387.22
2023-03-06T19:10:50.011Z,73387.22
2023-03-06T19:13:17.749Z,73387.22
2023-03-06T19:15:46.715Z,73387.22
2023-03-06T19:18:18.327Z,73387.22
2023-03-06T19:20:45.417Z,73387.22
2023-03-06T19:23:12.526Z,73387.22
2023-03-06T19:25:39.697Z,73387.22
2023-03-06T19:28:06.876Z,73387.22
2023-03-06T19:30:34.126Z,73387.22
2023-03-06T19:33:01.171Z,73387.22
2023-03-06T19:35:28.582Z,73387.22
2023-03-06T19:37:55.965Z,73387.22
2023-03-06T19:40:23.133Z,73387.22
2023-03-06T19:42:50.858Z,73387.22
2023-03-06T19:45:18.211Z,73387.22
2023-03-06T19:47:45.706Z,73387.22
2023-03-06T19:50:12.926Z,73387.22
2023-03-06T19:52:40.135Z,73387.22
2023-03-06T19:55:08.575Z,73387.22
2023-03-06T19:57:35.664Z,73387.22
2023-03-06T20:00:02.824Z,73387.22
2023-03-06T20:02:31.508Z,73387.22
2023-03-06T20:04:58.655Z,73387.22
2023-03-06T20:07:25.755Z,73387.22
2023-03-06T20:09:54.282Z,73387.22
2023-03-06T20:12:21.394Z,73387.22
2023-03-06T20:14:48.601Z,73387.22
2023-03-06T20:17:15.595Z,73387.22
2023-03-06T20:19:42.848Z,73387.22
2023-03-06T20:22:10.276Z,73387.22
2023-03-06T20:24:37.979Z,73387.22
2023-03-06T20:27:05.030Z,73387.22
2023-03-06T20:29:32.232Z,73387.22
2023-03-06T20:31:59.282Z,73387.22
2023-03-06T20:34:26.962Z,73387.22
2023-03-06T20:36:54.402Z,73387.22
2023-03-06T20:39:22.260Z,73387.22
2023-03-06T20:41:49.646Z,73387.22
2023-03-06T20:44:19.391Z,73387.22
2023-03-06T20:46:46.756Z,73387.22
2023-03-06T20:49:14.314Z,73387.22
2023-03-06T20:51:42.181Z,73387.22
2023-03-06T20:54:13.186Z,73387.22
2023-03-06T20:56:42.518Z,73387.22
2023-03-06T20:59:12.414Z,73387.22
2023-03-06T21:01:41.766Z,73387.22
2023-03-06T21:04:10.692Z,73387.22
2023-03-06T21:06:38.555Z,73387.22
2023-03-06T21:09:06.794Z,73387.22
2023-03-06T21:11:35.653Z,73387.22
2023-03-06T21:14:03.120Z,73387.22
2023-03-06T21:16:30.536Z,73387.22
2023-03-06T21:18:59.534Z,73387.22
2023-03-06T21:21:32.802Z,73387.22
2023-03-06T21:24:01.060Z,73387.22
2023-03-06T21:26:30.210Z,73387.22
2023-03-06T21:29:01.178Z,73387.22
2023-03-06T21:31:29.691Z,73387.22
2023-03-06T21:33:58.770Z,73387.22
2023-03-06T21:36:26.462Z,73387.22
2023-03-06T21:38:53.968Z,73387.22
2023-03-06T21:41:26.577Z,73387.22
2023-03-06T21:43:59.056Z,73387.22
2023-03-06T21:46:27.905Z,73387.22
2023-03-06T21:48:55.289Z,73387.22
2023-03-06T21:51:26.528Z,73387.22
2023-03-06T21:53:54.728Z,73387.22
2023-03-06T21:56:25.346Z,73387.22
2023-03-06T21:58:53.050Z,73387.22
2023-03-06T22:01:24.596Z,73387.22
2023-03-06T22:03:51.927Z,73387.22
2023-03-06T22:06:22.922Z,73387.22
2023-03-06T22:08:50.290Z,73387.22
2023-03-06T22:11:22.100Z,73387.22
2023-03-06T22:13:49.452Z,73387.22
2023-03-06T22:16:18.506Z,73387.22
2023-03-06T22:18:46.992Z,73387.22
2023-03-06T22:21:16.536Z,73387.22
2023-03-06T22:23:43.998Z,73387.22
2023-03-06T22:26:14.394Z,73387.22
2023-03-06T22:28:42.435Z,73387.22
2023-03-06T22:31:15.846Z,73387.22
2023-03-06T22:33:43.491Z,73387.22
2023-03-06T22:36:12.794Z,73387.22
2023-03-06T22:38:42.502Z,73387.22
2023-03-06T22:41:11.493Z,73387.22
2023-03-06T22:43:39.066Z,73387.22
2023-03-06T22:46:08.976Z,73387.22
2023-03-06T22:48:36.756Z,73387.22
2023-03-06T22:51:09.416Z,73387.22
2023-03-06T22:53:36.766Z,73387.22
2023-03-06T22:56:06.134Z,73387.22
2023-03-06T22:58:36.911Z,73387.22
2023-03-06T23:01:10.188Z,73387.22
2023-03-06T23:03:38.637Z,73387.22
2023-03-06T23:06:11.384Z,73387.22
2023-03-06T23:08:38.830Z,73387.22
2023-03-06T23:11:12.274Z,73387.22
2023-03-06T23:13:40.147Z,73387.22
2023-03-06T23:16:08.532Z,73387.22
2023-03-06T23:18:37.052Z,73387.22
2023-03-06T23:21:13.413Z,73387.22
2023-03-06T23:23:41.411Z,73387.22
2023-03-06T23:26:08.991Z,73387.22
2023-03-06T23:28:36.095Z,73387.22
2023-03-06T23:31:07.871Z,73387.22
2023-03-06T23:33:35.328Z,73387.22
2023-03-06T23:36:07.767Z,73387.22
2023-03-06T23:38:35.238Z,73387.22
2023-03-06T23:41:04.412Z,73387.22
2023-03-06T23:43:32.005Z,73387.22
2023-03-06T23:45:59.676Z,73387.22
2023-03-06T23:48:27.219Z,73387.22
2023-03-06T23:50:54.364Z,73387.22
2023-03-06T23:53:22.310Z,73387.22
2023-03-06T23:55:50.798Z,73387.22
2023-03-06T23:58:19.491Z,73387.22
